sensor_id;sensor_type;location;lat;lon;timestamp;noise_LAeq;noise_LA_min;noise_LA_max;noise_LA01;noise_LA95
63692;Laerm;49838;51.798;10.954;2023-04-24T00:00:32;36.63;27.31;53.62;;
63692;Laerm;49838;51.798;10.954;2023-04-24T00:03:01;31.58;27.63;40.42;;
63692;Laerm;49838;51.798;10.954;2023-04-24T00:05:29;30.08;27.14;38.96;;
63692;Laerm;49838;51.798;10.954;2023-04-24T00:07:56;31.53;27.33;38.30;;
63692;Laerm;49838;51.798;10.954;2023-04-24T00:10:23;31.92;27.66;42.16;;
63692;Laerm;49838;51.798;10.954;2023-04-24T00:12:50;31.00;27.63;41.25;;
63692;Laerm;49838;51.798;10.954;2023-04-24T00:15:18;30.03;27.26;36.30;;
63692;Laerm;49838;51.798;10.954;2023-04-24T00:17:45;29.96;27.10;36.63;;
63692;Laerm;49838;51.798;10.954;2023-04-24T00:20:14;29.26;26.95;45.90;;
63692;Laerm;49838;51.798;10.954;2023-04-24T00:22:41;30.37;26.75;46.61;;
63692;Laerm;49838;51.798;10.954;2023-04-24T00:25:08;28.93;26.81;32.40;;
63692;Laerm;49838;51.798;10.954;2023-04-24T00:27:36;31.05;27.62;41.56;;
63692;Laerm;49838;51.798;10.954;2023-04-24T00:30:05;31.38;26.98;42.81;;
63692;Laerm;49838;51.798;10.954;2023-04-24T00:32:33;30.29;27.20;44.69;;
63692;Laerm;49838;51.798;10.954;2023-04-24T00:35:00;28.82;27.04;36.30;;
63692;Laerm;49838;51.798;10.954;2023-04-24T00:37:29;30.48;27.03;37.31;;
63692;Laerm;49838;51.798;10.954;2023-04-24T00:39:56;29.60;26.76;34.65;;
63692;Laerm;49838;51.798;10.954;2023-04-24T00:42:23;29.70;27.16;38.03;;
63692;Laerm;49838;51.798;10.954;2023-04-24T00:44:51;31.88;29.06;46.79;;
63692;Laerm;49838;51.798;10.954;2023-04-24T00:47:19;32.16;28.85;41.76;;
63692;Laerm;49838;51.798;10.954;2023-04-24T00:49:47;29.98;27.45;44.39;;
63692;Laerm;49838;51.798;10.954;2023-04-24T00:52:15;33.46;27.59;56.53;;
63692;Laerm;49838;51.798;10.954;2023-04-24T00:54:45;29.62;27.44;46.19;;
63692;Laerm;49838;51.798;10.954;2023-04-24T00:57:12;29.81;27.53;34.93;;
63692;Laerm;49838;51.798;10.954;2023-04-24T00:59:41;31.72;27.94;40.97;;
63692;Laerm;49838;51.798;10.954;2023-04-24T01:02:09;30.23;27.28;42.74;;
63692;Laerm;49838;51.798;10.954;2023-04-24T01:04:37;36.25;27.81;70.72;;
63692;Laerm;49838;51.798;10.954;2023-04-24T01:07:04;30.80;28.39;39.76;;
63692;Laerm;49838;51.798;10.954;2023-04-24T01:09:36;30.26;27.85;33.29;;
63692;Laerm;49838;51.798;10.954;2023-04-24T01:12:05;30.69;28.07;38.71;;
63692;Laerm;49838;51.798;10.954;2023-04-24T01:14:33;30.28;27.99;36.00;;
63692;Laerm;49838;51.798;10.954;2023-04-24T01:17:00;31.78;28.18;40.70;;
63692;Laerm;49838;51.798;10.954;2023-04-24T01:19:27;30.95;28.00;36.92;;
63692;Laerm;49838;51.798;10.954;2023-04-24T01:21:58;32.37;28.52;43.24;;
63692;Laerm;49838;51.798;10.954;2023-04-24T01:24:27;32.20;28.41;41.81;;
63692;Laerm;49838;51.798;10.954;2023-04-24T01:26:54;31.97;28.10;45.33;;
63692;Laerm;49838;51.798;10.954;2023-04-24T01:29:21;32.06;28.47;38.00;;
63692;Laerm;49838;51.798;10.954;2023-04-24T01:31:49;36.40;29.52;45.72;;
63692;Laerm;49838;51.798;10.954;2023-04-24T01:34:16;33.16;29.35;41.03;;
63692;Laerm;49838;51.798;10.954;2023-04-24T01:36:45;32.70;28.31;38.09;;
63692;Laerm;49838;51.798;10.954;2023-04-24T01:39:13;31.05;28.30;39.59;;
63692;Laerm;49838;51.798;10.954;2023-04-24T01:41:42;33.44;28.50;44.96;;
63692;Laerm;49838;51.798;10.954;2023-04-24T01:44:10;32.37;28.99;41.64;;
63692;Laerm;49838;51.798;10.954;2023-04-24T01:46:37;33.26;29.14;44.58;;
63692;Laerm;49838;51.798;10.954;2023-04-24T01:49:05;37.16;28.88;48.25;;
63692;Laerm;49838;51.798;10.954;2023-04-24T01:51:32;34.03;29.58;40.72;;
63692;Laerm;49838;51.798;10.954;2023-04-24T01:53:59;49.51;29.87;67.93;;
63692;Laerm;49838;51.798;10.954;2023-04-24T01:56:29;38.37;33.06;52.56;;
63692;Laerm;49838;51.798;10.954;2023-04-24T01:58:57;39.53;31.92;55.55;;
63692;Laerm;49838;51.798;10.954;2023-04-24T02:01:25;38.21;33.21;48.05;;
63692;Laerm;49838;51.798;10.954;2023-04-24T02:03:53;41.58;35.74;53.15;;
63692;Laerm;49838;51.798;10.954;2023-04-24T02:06:20;44.32;35.26;55.16;;
63692;Laerm;49838;51.798;10.954;2023-04-24T02:08:48;42.95;35.81;60.12;;
63692;Laerm;49838;51.798;10.954;2023-04-24T02:11:15;40.78;33.48;51.00;;
63692;Laerm;49838;51.798;10.954;2023-04-24T02:13:42;41.76;34.78;58.42;;
63692;Laerm;49838;51.798;10.954;2023-04-24T02:16:11;43.64;37.59;61.32;;
63692;Laerm;49838;51.798;10.954;2023-04-24T02:18:38;41.63;34.33;60.01;;
63692;Laerm;49838;51.798;10.954;2023-04-24T02:21:05;44.73;35.44;62.88;;
63692;Laerm;49838;51.798;10.954;2023-04-24T02:23:32;44.19;35.55;56.35;;
63692;Laerm;49838;51.798;10.954;2023-04-24T02:26:00;46.81;33.90;62.24;;
63692;Laerm;49838;51.798;10.954;2023-04-24T02:28:27;44.95;34.44;59.35;;
63692;Laerm;49838;51.798;10.954;2023-04-24T02:30:55;45.09;33.87;62.15;;
63692;Laerm;49838;51.798;10.954;2023-04-24T02:33:23;45.49;34.50;59.87;;
63692;Laerm;49838;51.798;10.954;2023-04-24T02:35:50;47.57;35.64;62.22;;
63692;Laerm;49838;51.798;10.954;2023-04-24T02:38:18;45.81;37.52;60.84;;
63692;Laerm;49838;51.798;10.954;2023-04-24T02:40:45;49.59;36.71;69.62;;
63692;Laerm;49838;51.798;10.954;2023-04-24T02:43:12;47.60;35.38;65.60;;
63692;Laerm;49838;51.798;10.954;2023-04-24T02:45:39;51.60;36.46;69.95;;
63692;Laerm;49838;51.798;10.954;2023-04-24T02:48:06;50.76;35.70;68.75;;
63692;Laerm;49838;51.798;10.954;2023-04-24T02:50:35;51.18;35.08;69.58;;
63692;Laerm;49838;51.798;10.954;2023-04-24T02:53:02;50.89;34.73;66.99;;
63692;Laerm;49838;51.798;10.954;2023-04-24T02:55:30;53.40;36.01;67.89;;
63692;Laerm;49838;51.798;10.954;2023-04-24T02:57:57;51.06;37.06;65.88;;
63692;Laerm;49838;51.798;10.954;2023-04-24T03:00:24;57.37;38.42;75.79;;
63692;Laerm;49838;51.798;10.954;2023-04-24T03:02:51;51.58;36.00;72.49;;
63692;Laerm;49838;51.798;10.954;2023-04-24T03:05:19;48.71;35.05;65.84;;
63692;Laerm;49838;51.798;10.954;2023-04-24T03:07:47;49.50;36.41;64.03;;
63692;Laerm;49838;51.798;10.954;2023-04-24T03:10:15;53.66;36.88;71.39;;
63692;Laerm;49838;51.798;10.954;2023-04-24T03:12:42;51.29;37.90;66.47;;
63692;Laerm;49838;51.798;10.954;2023-04-24T03:15:09;50.30;39.07;63.16;;
63692;Laerm;49838;51.798;10.954;2023-04-24T03:17:37;54.66;40.86;70.77;;
63692;Laerm;49838;51.798;10.954;2023-04-24T03:20:05;48.75;40.54;62.05;;
63692;Laerm;49838;51.798;10.954;2023-04-24T03:22:34;52.38;40.64;67.70;;
63692;Laerm;49838;51.798;10.954;2023-04-24T03:25:03;50.39;41.43;66.42;;
63692;Laerm;49838;51.798;10.954;2023-04-24T03:27:31;53.90;41.09;67.30;;
63692;Laerm;49838;51.798;10.954;2023-04-24T03:29:58;48.23;39.11;68.13;;
63692;Laerm;49838;51.798;10.954;2023-04-24T03:32:26;47.05;38.95;60.94;;
63692;Laerm;49838;51.798;10.954;2023-04-24T03:34:54;50.70;39.57;65.26;;
63692;Laerm;49838;51.798;10.954;2023-04-24T03:37:21;49.92;39.22;70.13;;
63692;Laerm;49838;51.798;10.954;2023-04-24T03:39:48;52.04;40.75;69.92;;
63692;Laerm;49838;51.798;10.954;2023-04-24T03:42:17;46.77;40.58;63.57;;
63692;Laerm;49838;51.798;10.954;2023-04-24T03:44:44;52.05;38.48;68.31;;
63692;Laerm;49838;51.798;10.954;2023-04-24T03:47:11;58.17;40.59;73.75;;
63692;Laerm;49838;51.798;10.954;2023-04-24T03:49:38;51.86;39.53;68.64;;
63692;Laerm;49838;51.798;10.954;2023-04-24T03:52:05;56.11;41.30;70.08;;
63692;Laerm;49838;51.798;10.954;2023-04-24T03:54:33;53.28;39.93;73.24;;
63692;Laerm;49838;51.798;10.954;2023-04-24T03:57:00;54.12;37.19;70.38;;
63692;Laerm;49838;51.798;10.954;2023-04-24T03:59:29;48.18;36.70;63.90;;
63692;Laerm;49838;51.798;10.954;2023-04-24T04:01:56;43.65;36.71;57.13;;
63692;Laerm;49838;51.798;10.954;2023-04-24T04:04:23;51.50;35.60;71.90;;
63692;Laerm;49838;51.798;10.954;2023-04-24T04:06:51;55.70;37.37;76.04;;
63692;Laerm;49838;51.798;10.954;2023-04-24T04:09:19;47.82;36.15;63.32;;
63692;Laerm;49838;51.798;10.954;2023-04-24T04:11:46;49.77;36.93;67.26;;
63692;Laerm;49838;51.798;10.954;2023-04-24T04:14:14;51.46;37.31;69.38;;
63692;Laerm;49838;51.798;10.954;2023-04-24T04:16:42;53.85;37.16;74.35;;
63692;Laerm;49838;51.798;10.954;2023-04-24T04:19:10;54.63;36.56;72.27;;
63692;Laerm;49838;51.798;10.954;2023-04-24T04:21:37;53.86;36.13;70.60;;
63692;Laerm;49838;51.798;10.954;2023-04-24T04:24:04;44.32;35.29;63.21;;
63692;Laerm;49838;51.798;10.954;2023-04-24T04:26:33;55.53;35.69;74.45;;
63692;Laerm;49838;51.798;10.954;2023-04-24T04:29:01;57.63;38.94;70.96;;
63692;Laerm;49838;51.798;10.954;2023-04-24T04:31:29;53.91;35.48;71.62;;
63692;Laerm;49838;51.798;10.954;2023-04-24T04:33:58;57.02;35.93;75.81;;
63692;Laerm;49838;51.798;10.954;2023-04-24T04:36:25;51.79;35.59;68.53;;
63692;Laerm;49838;51.798;10.954;2023-04-24T04:38:52;50.40;35.36;66.88;;
63692;Laerm;49838;51.798;10.954;2023-04-24T04:41:20;58.67;36.16;74.49;;
63692;Laerm;49838;51.798;10.954;2023-04-24T04:43:47;53.52;36.93;68.34;;
63692;Laerm;49838;51.798;10.954;2023-04-24T04:46:15;59.30;36.52;75.18;;
63692;Laerm;49838;51.798;10.954;2023-04-24T04:48:42;56.73;37.12;71.14;;
63692;Laerm;49838;51.798;10.954;2023-04-24T04:51:11;65.17;37.59;82.73;;
63692;Laerm;49838;51.798;10.954;2023-04-24T04:53:38;59.47;37.49;77.97;;
63692;Laerm;49838;51.798;10.954;2023-04-24T04:56:06;57.11;37.78;74.38;;
63692;Laerm;49838;51.798;10.954;2023-04-24T04:58:33;57.49;38.03;77.38;;
63692;Laerm;49838;51.798;10.954;2023-04-24T05:01:01;55.34;37.37;72.13;;
63692;Laerm;49838;51.798;10.954;2023-04-24T05:03:28;58.15;38.49;72.03;;
63692;Laerm;49838;51.798;10.954;2023-04-24T05:05:55;56.89;36.47;72.91;;
63692;Laerm;49838;51.798;10.954;2023-04-24T05:08:24;58.13;36.26;77.13;;
63692;Laerm;49838;51.798;10.954;2023-04-24T05:10:51;60.81;39.86;73.95;;
63692;Laerm;49838;51.798;10.954;2023-04-24T05:13:18;59.68;38.72;75.41;;
63692;Laerm;49838;51.798;10.954;2023-04-24T05:15:46;54.90;36.64;69.85;;
63692;Laerm;49838;51.798;10.954;2023-04-24T05:18:13;56.78;37.33;70.68;;
63692;Laerm;49838;51.798;10.954;2023-04-24T05:20:41;65.16;42.21;85.10;;
63692;Laerm;49838;51.798;10.954;2023-04-24T05:23:09;61.23;44.03;76.59;;
63692;Laerm;49838;51.798;10.954;2023-04-24T05:25:39;61.37;46.42;73.00;;
63692;Laerm;49838;51.798;10.954;2023-04-24T05:28:07;58.84;41.71;73.28;;
63692;Laerm;49838;51.798;10.954;2023-04-24T05:30:34;62.07;43.44;74.62;;
63692;Laerm;49838;51.798;10.954;2023-04-24T05:33:02;62.96;43.00;76.78;;
63692;Laerm;49838;51.798;10.954;2023-04-24T05:35:29;62.53;44.58;74.61;;
63692;Laerm;49838;51.798;10.954;2023-04-24T05:37:57;62.55;42.87;79.43;;
63692;Laerm;49838;51.798;10.954;2023-04-24T05:40:24;60.84;41.74;75.73;;
63692;Laerm;49838;51.798;10.954;2023-04-24T05:42:53;63.01;43.01;82.58;;
63692;Laerm;49838;51.798;10.954;2023-04-24T05:45:20;58.66;42.63;70.78;;
63692;Laerm;49838;51.798;10.954;2023-04-24T05:47:47;53.39;43.05;68.62;;
63692;Laerm;49838;51.798;10.954;2023-04-24T05:50:16;56.84;45.15;70.63;;
63692;Laerm;49838;51.798;10.954;2023-04-24T05:52:43;58.36;42.79;73.04;;
63692;Laerm;49838;51.798;10.954;2023-04-24T05:55:11;59.14;45.71;70.59;;
63692;Laerm;49838;51.798;10.954;2023-04-24T05:57:39;60.65;45.24;73.30;;
63692;Laerm;49838;51.798;10.954;2023-04-24T06:00:09;61.27;46.78;74.89;;
63692;Laerm;49838;51.798;10.954;2023-04-24T06:02:38;57.04;46.12;70.83;;
63692;Laerm;49838;51.798;10.954;2023-04-24T06:05:06;55.81;43.27;68.87;;
63692;Laerm;49838;51.798;10.954;2023-04-24T06:07:34;55.57;42.45;71.17;;
63692;Laerm;49838;51.798;10.954;2023-04-24T06:10:01;56.14;42.22;70.45;;
63692;Laerm;49838;51.798;10.954;2023-04-24T06:12:29;54.15;43.11;68.20;;
63692;Laerm;49838;51.798;10.954;2023-04-24T06:14:56;55.31;41.82;76.07;;
63692;Laerm;49838;51.798;10.954;2023-04-24T06:17:25;54.99;41.44;71.44;;
63692;Laerm;49838;51.798;10.954;2023-04-24T06:19:52;56.91;42.09;68.88;;
63692;Laerm;49838;51.798;10.954;2023-04-24T06:22:19;57.87;41.10;73.85;;
63692;Laerm;49838;51.798;10.954;2023-04-24T06:24:46;57.72;38.95;73.17;;
63692;Laerm;49838;51.798;10.954;2023-04-24T06:27:14;53.52;38.44;69.92;;
63692;Laerm;49838;51.798;10.954;2023-04-24T06:29:41;60.19;41.50;73.66;;
63692;Laerm;49838;51.798;10.954;2023-04-24T06:32:08;53.09;38.65;70.88;;
63692;Laerm;49838;51.798;10.954;2023-04-24T06:34:37;60.70;39.90;81.69;;
63692;Laerm;49838;51.798;10.954;2023-04-24T06:37:04;58.33;38.72;73.22;;
63692;Laerm;49838;51.798;10.954;2023-04-24T06:39:31;57.07;37.32;76.01;;
63692;Laerm;49838;51.798;10.954;2023-04-24T06:41:59;59.67;38.20;75.40;;
63692;Laerm;49838;51.798;10.954;2023-04-24T06:44:26;56.49;37.34;73.40;;
63692;Laerm;49838;51.798;10.954;2023-04-24T06:46:53;56.64;38.49;71.84;;
63692;Laerm;49838;51.798;10.954;2023-04-24T06:49:21;54.64;37.16;69.98;;
63692;Laerm;49838;51.798;10.954;2023-04-24T06:51:49;64.18;37.56;81.22;;
63692;Laerm;49838;51.798;10.954;2023-04-24T06:54:16;58.25;40.51;71.15;;
63692;Laerm;49838;51.798;10.954;2023-04-24T06:56:44;59.11;39.23;79.11;;
63692;Laerm;49838;51.798;10.954;2023-04-24T06:59:13;52.96;38.10;67.54;;
63692;Laerm;49838;51.798;10.954;2023-04-24T07:01:41;59.52;41.99;74.99;;
63692;Laerm;49838;51.798;10.954;2023-04-24T07:04:08;59.46;36.79;73.81;;
63692;Laerm;49838;51.798;10.954;2023-04-24T07:06:35;54.85;38.43;69.72;;
63692;Laerm;49838;51.798;10.954;2023-04-24T07:09:05;57.56;37.27;70.07;;
63692;Laerm;49838;51.798;10.954;2023-04-24T07:11:32;57.94;38.09;74.36;;
63692;Laerm;49838;51.798;10.954;2023-04-24T07:14:00;53.42;38.79;67.72;;
63692;Laerm;49838;51.798;10.954;2023-04-24T07:16:27;58.86;39.85;71.25;;
63692;Laerm;49838;51.798;10.954;2023-04-24T07:18:55;60.53;39.53;73.51;;
63692;Laerm;49838;51.798;10.954;2023-04-24T07:21:22;60.73;38.49;77.65;;
63692;Laerm;49838;51.798;10.954;2023-04-24T07:23:49;58.97;38.77;78.88;;
63692;Laerm;49838;51.798;10.954;2023-04-24T07:26:18;59.96;38.97;73.38;;
63692;Laerm;49838;51.798;10.954;2023-04-24T07:28:46;63.64;39.58;79.13;;
63692;Laerm;49838;51.798;10.954;2023-04-24T07:31:13;55.11;40.22;77.29;;
63692;Laerm;49838;51.798;10.954;2023-04-24T07:33:41;61.13;47.27;74.03;;
63692;Laerm;49838;51.798;10.954;2023-04-24T07:36:08;60.35;42.67;73.92;;
63692;Laerm;49838;51.798;10.954;2023-04-24T07:38:41;56.72;42.30;67.92;;
63692;Laerm;49838;51.798;10.954;2023-04-24T07:41:08;60.53;42.43;78.14;;
63692;Laerm;49838;51.798;10.954;2023-04-24T07:43:37;62.37;40.59;79.40;;
63692;Laerm;49838;51.798;10.954;2023-04-24T07:46:04;52.81;41.60;71.52;;
63692;Laerm;49838;51.798;10.954;2023-04-24T07:48:32;55.87;40.44;72.48;;
63692;Laerm;49838;51.798;10.954;2023-04-24T07:50:59;61.13;40.87;78.62;;
63692;Laerm;49838;51.798;10.954;2023-04-24T07:53:26;56.03;39.42;70.07;;
63692;Laerm;49838;51.798;10.954;2023-04-24T07:55:54;59.03;41.12;73.09;;
63692;Laerm;49838;51.798;10.954;2023-04-24T07:58:21;64.84;46.01;81.47;;
63692;Laerm;49838;51.798;10.954;2023-04-24T08:00:50;53.08;38.54;70.49;;
63692;Laerm;49838;51.798;10.954;2023-04-24T08:03:18;58.92;43.08;70.87;;
63692;Laerm;49838;51.798;10.954;2023-04-24T08:05:45;64.01;43.38;79.21;;
63692;Laerm;49838;51.798;10.954;2023-04-24T08:08:13;61.42;44.21;73.51;;
63692;Laerm;49838;51.798;10.954;2023-04-24T08:10:40;58.55;45.69;71.53;;
63692;Laerm;49838;51.798;10.954;2023-04-24T08:13:08;56.18;41.86;72.18;;
63692;Laerm;49838;51.798;10.954;2023-04-24T08:15:37;65.80;52.26;73.84;;
63692;Laerm;49838;51.798;10.954;2023-04-24T08:18:06;64.15;52.10;75.20;;
63692;Laerm;49838;51.798;10.954;2023-04-24T08:20:34;61.84;52.05;71.51;;
63692;Laerm;49838;51.798;10.954;2023-04-24T08:23:02;55.61;41.26;72.15;;
63692;Laerm;49838;51.798;10.954;2023-04-24T08:25:30;62.92;53.27;72.71;;
63692;Laerm;49838;51.798;10.954;2023-04-24T08:27:57;61.54;52.90;69.18;;
63692;Laerm;49838;51.798;10.954;2023-04-24T08:30:24;59.02;45.66;74.39;;
63692;Laerm;49838;51.798;10.954;2023-04-24T08:32:52;62.11;53.67;69.26;;
63692;Laerm;49838;51.798;10.954;2023-04-24T08:35:20;62.40;51.90;76.45;;
63692;Laerm;49838;51.798;10.954;2023-04-24T08:37:49;60.99;45.78;74.19;;
63692;Laerm;49838;51.798;10.954;2023-04-24T08:40:16;56.87;45.72;73.41;;
63692;Laerm;49838;51.798;10.954;2023-04-24T08:42:44;57.63;42.18;71.10;;
63692;Laerm;49838;51.798;10.954;2023-04-24T08:45:12;65.04;45.36;83.35;;
63692;Laerm;49838;51.798;10.954;2023-04-24T08:47:40;56.34;43.18;72.85;;
63692;Laerm;49838;51.798;10.954;2023-04-24T08:50:09;59.51;44.93;70.33;;
63692;Laerm;49838;51.798;10.954;2023-04-24T08:52:38;57.06;42.48;71.59;;
63692;Laerm;49838;51.798;10.954;2023-04-24T08:55:06;61.67;46.92;73.96;;
63692;Laerm;49838;51.798;10.954;2023-04-24T08:57:33;59.67;46.42;73.64;;
63692;Laerm;49838;51.798;10.954;2023-04-24T09:00:02;60.84;48.38;72.41;;
63692;Laerm;49838;51.798;10.954;2023-04-24T09:02:31;58.21;46.47;71.07;;
63692;Laerm;49838;51.798;10.954;2023-04-24T09:05:00;65.68;46.02;83.28;;
63692;Laerm;49838;51.798;10.954;2023-04-24T09:07:30;56.60;40.55;71.94;;
63692;Laerm;49838;51.798;10.954;2023-04-24T09:10:01;60.21;42.54;72.77;;
63692;Laerm;49838;51.798;10.954;2023-04-24T09:12:28;54.16;41.61;68.52;;
63692;Laerm;49838;51.798;10.954;2023-04-24T09:14:56;55.82;39.14;74.60;;
63692;Laerm;49838;51.798;10.954;2023-04-24T09:17:24;60.48;40.70;76.54;;
63692;Laerm;49838;51.798;10.954;2023-04-24T09:19:53;63.17;47.45;77.59;;
63692;Laerm;49838;51.798;10.954;2023-04-24T09:22:21;62.48;47.48;90.43;;
63692;Laerm;49838;51.798;10.954;2023-04-24T09:24:48;60.80;50.27;69.51;;
63692;Laerm;49838;51.798;10.954;2023-04-24T09:27:28;57.79;45.66;73.42;;
63692;Laerm;49838;51.798;10.954;2023-04-24T09:29:56;60.26;46.28;74.87;;
63692;Laerm;49838;51.798;10.954;2023-04-24T09:32:24;57.90;44.35;71.24;;
63692;Laerm;49838;51.798;10.954;2023-04-24T09:35:05;62.18;45.60;77.72;;
63692;Laerm;49838;51.798;10.954;2023-04-24T09:37:35;60.89;42.78;78.94;;
63692;Laerm;49838;51.798;10.954;2023-04-24T09:40:14;55.04;41.97;70.64;;
63692;Laerm;49838;51.798;10.954;2023-04-24T09:42:46;57.57;42.86;71.82;;
63692;Laerm;49838;51.798;10.954;2023-04-24T09:45:18;57.62;43.15;72.49;;
63692;Laerm;49838;51.798;10.954;2023-04-24T09:47:45;59.54;43.97;72.14;;
63692;Laerm;49838;51.798;10.954;2023-04-24T09:50:14;58.12;45.12;69.55;;
63692;Laerm;49838;51.798;10.954;2023-04-24T09:52:43;54.34;45.73;68.53;;
63692;Laerm;49838;51.798;10.954;2023-04-24T09:55:16;60.59;41.07;75.86;;
63692;Laerm;49838;51.798;10.954;2023-04-24T09:57:49;54.15;38.48;69.89;;
63692;Laerm;49838;51.798;10.954;2023-04-24T10:00:24;55.08;40.15;69.81;;
63692;Laerm;49838;51.798;10.954;2023-04-24T10:02:56;57.66;38.66;75.43;;
63692;Laerm;49838;51.798;10.954;2023-04-24T10:05:27;58.25;40.77;71.94;;
63692;Laerm;49838;51.798;10.954;2023-04-24T10:07:59;61.02;40.65;81.17;;
63692;Laerm;49838;51.798;10.954;2023-04-24T10:10:27;55.90;38.89;69.56;;
63692;Laerm;49838;51.798;10.954;2023-04-24T10:13:00;56.08;38.68;70.47;;
63692;Laerm;49838;51.798;10.954;2023-04-24T10:15:27;51.28;38.41;68.91;;
63692;Laerm;49838;51.798;10.954;2023-04-24T10:17:57;57.13;38.75;70.86;;
63692;Laerm;49838;51.798;10.954;2023-04-24T10:20:27;55.35;38.75;74.76;;
63692;Laerm;49838;51.798;10.954;2023-04-24T10:22:56;56.97;39.42;72.85;;
63692;Laerm;49838;51.798;10.954;2023-04-24T10:25:25;52.15;38.44;69.36;;
63692;Laerm;49838;51.798;10.954;2023-04-24T10:27:58;57.05;37.72;72.28;;
63692;Laerm;49838;51.798;10.954;2023-04-24T10:30:27;54.27;37.29;71.24;;
63692;Laerm;49838;51.798;10.954;2023-04-24T10:32:55;59.75;36.60;73.25;;
63692;Laerm;49838;51.798;10.954;2023-04-24T10:35:23;57.38;38.67;70.90;;
63692;Laerm;49838;51.798;10.954;2023-04-24T10:37:56;56.91;38.98;70.75;;
63692;Laerm;49838;51.798;10.954;2023-04-24T10:40:26;63.56;40.30;77.32;;
63692;Laerm;49838;51.798;10.954;2023-04-24T10:42:55;59.43;39.01;76.23;;
63692;Laerm;49838;51.798;10.954;2023-04-24T10:45:25;59.15;39.60;73.07;;
63692;Laerm;49838;51.798;10.954;2023-04-24T10:47:54;55.24;38.91;71.24;;
63692;Laerm;49838;51.798;10.954;2023-04-24T10:50:24;55.82;40.18;73.31;;
63692;Laerm;49838;51.798;10.954;2023-04-24T10:52:52;53.08;39.47;68.85;;
63692;Laerm;49838;51.798;10.954;2023-04-24T10:55:41;58.11;39.38;75.54;;
63692;Laerm;49838;51.798;10.954;2023-04-24T10:58:09;59.89;42.18;71.73;;
63692;Laerm;49838;51.798;10.954;2023-04-24T11:00:39;57.26;41.70;68.44;;
63692;Laerm;49838;51.798;10.954;2023-04-24T11:03:21;60.13;44.42;76.02;;
63692;Laerm;49838;51.798;10.954;2023-04-24T11:05:50;58.62;41.58;72.05;;
63692;Laerm;49838;51.798;10.954;2023-04-24T11:08:23;55.72;42.90;72.41;;
63692;Laerm;49838;51.798;10.954;2023-04-24T11:10:56;65.36;47.07;79.36;;
63692;Laerm;49838;51.798;10.954;2023-04-24T11:13:25;56.68;44.00;70.43;;
63692;Laerm;49838;51.798;10.954;2023-04-24T11:16:13;56.05;43.81;70.92;;
63692;Laerm;49838;51.798;10.954;2023-04-24T11:18:42;54.07;43.34;68.46;;
63692;Laerm;49838;51.798;10.954;2023-04-24T11:21:12;57.22;42.73;70.90;;
63692;Laerm;49838;51.798;10.954;2023-04-24T11:23:39;61.23;42.10;78.64;;
63692;Laerm;49838;51.798;10.954;2023-04-24T11:26:11;55.53;41.94;72.64;;
63692;Laerm;49838;51.798;10.954;2023-04-24T11:28:44;54.70;42.51;70.51;;
63692;Laerm;49838;51.798;10.954;2023-04-24T11:31:40;54.61;41.93;69.57;;
63692;Laerm;49838;51.798;10.954;2023-04-24T11:34:09;62.37;42.08;77.61;;
63692;Laerm;49838;51.798;10.954;2023-04-24T11:36:38;55.86;41.77;71.46;;
63692;Laerm;49838;51.798;10.954;2023-04-24T11:39:05;61.24;43.54;77.23;;
63692;Laerm;49838;51.798;10.954;2023-04-24T11:41:33;57.98;42.75;79.44;;
63692;Laerm;49838;51.798;10.954;2023-04-24T11:44:02;53.67;43.25;71.28;;
63692;Laerm;49838;51.798;10.954;2023-04-24T11:46:30;63.56;43.80;82.12;;
63692;Laerm;49838;51.798;10.954;2023-04-24T11:48:59;61.26;41.90;79.66;;
63692;Laerm;49838;51.798;10.954;2023-04-24T11:51:27;59.73;43.65;77.08;;
63692;Laerm;49838;51.798;10.954;2023-04-24T11:53:55;63.44;44.37;84.58;;
63692;Laerm;49838;51.798;10.954;2023-04-24T11:56:23;60.89;38.44;81.25;;
63692;Laerm;49838;51.798;10.954;2023-04-24T11:58:51;59.35;39.73;77.22;;
63692;Laerm;49838;51.798;10.954;2023-04-24T12:01:19;55.19;38.73;72.85;;
63692;Laerm;49838;51.798;10.954;2023-04-24T12:03:48;55.45;39.37;69.44;;
63692;Laerm;49838;51.798;10.954;2023-04-24T12:06:18;56.69;38.92;70.19;;
63692;Laerm;49838;51.798;10.954;2023-04-24T12:08:47;63.47;39.00;80.68;;
63692;Laerm;49838;51.798;10.954;2023-04-24T12:11:16;56.26;38.76;70.65;;
63692;Laerm;49838;51.798;10.954;2023-04-24T12:13:44;55.71;40.49;71.97;;
63692;Laerm;49838;51.798;10.954;2023-04-24T12:16:12;56.26;40.33;72.82;;
63692;Laerm;49838;51.798;10.954;2023-04-24T12:18:44;56.15;38.30;69.47;;
63692;Laerm;49838;51.798;10.954;2023-04-24T12:21:17;52.05;37.62;67.63;;
63692;Laerm;49838;51.798;10.954;2023-04-24T12:23:45;58.32;38.81;74.36;;
63692;Laerm;49838;51.798;10.954;2023-04-24T12:26:12;60.42;40.63;80.53;;
63692;Laerm;49838;51.798;10.954;2023-04-24T12:28:42;53.84;40.79;67.16;;
63692;Laerm;49838;51.798;10.954;2023-04-24T12:31:10;56.98;38.46;71.67;;
63692;Laerm;49838;51.798;10.954;2023-04-24T12:33:37;60.43;41.64;75.70;;
63692;Laerm;49838;51.798;10.954;2023-04-24T12:36:04;58.48;43.69;73.04;;
63692;Laerm;49838;51.798;10.954;2023-04-24T12:38:33;57.64;43.41;70.20;;
63692;Laerm;49838;51.798;10.954;2023-04-24T12:41:07;57.27;47.61;74.49;;
63692;Laerm;49838;51.798;10.954;2023-04-24T12:43:35;58.11;44.83;70.66;;
63692;Laerm;49838;51.798;10.954;2023-04-24T12:46:04;58.86;42.13;71.02;;
63692;Laerm;49838;51.798;10.954;2023-04-24T12:48:31;59.50;43.49;73.64;;
63692;Laerm;49838;51.798;10.954;2023-04-24T12:50:59;55.89;45.70;68.94;;
63692;Laerm;49838;51.798;10.954;2023-04-24T12:53:29;60.55;45.41;73.19;;
63692;Laerm;49838;51.798;10.954;2023-04-24T12:55:58;61.99;43.01;76.02;;
63692;Laerm;49838;51.798;10.954;2023-04-24T12:58:25;57.12;38.25;77.49;;
63692;Laerm;49838;51.798;10.954;2023-04-24T13:00:53;57.02;42.24;73.29;;
63692;Laerm;49838;51.798;10.954;2023-04-24T13:03:20;60.95;41.27;72.44;;
63692;Laerm;49838;51.798;10.954;2023-04-24T13:05:48;57.82;40.46;71.76;;
63692;Laerm;49838;51.798;10.954;2023-04-24T13:08:15;57.67;39.06;72.08;;
63692;Laerm;49838;51.798;10.954;2023-04-24T13:10:42;54.92;39.89;74.14;;
63692;Laerm;49838;51.798;10.954;2023-04-24T13:13:12;56.19;40.37;72.21;;
63692;Laerm;49838;51.798;10.954;2023-04-24T13:15:39;60.43;41.27;74.08;;
63692;Laerm;49838;51.798;10.954;2023-04-24T13:18:06;57.60;39.88;69.65;;
63692;Laerm;49838;51.798;10.954;2023-04-24T13:20:34;62.85;44.13;80.50;;
63692;Laerm;49838;51.798;10.954;2023-04-24T13:23:02;58.57;45.29;73.99;;
63692;Laerm;49838;51.798;10.954;2023-04-24T13:25:34;62.39;48.81;83.29;;
63692;Laerm;49838;51.798;10.954;2023-04-24T13:28:01;59.85;44.19;71.37;;
63692;Laerm;49838;51.798;10.954;2023-04-24T13:30:32;60.42;44.88;76.17;;
63692;Laerm;49838;51.798;10.954;2023-04-24T13:33:01;59.31;45.06;72.12;;
63692;Laerm;49838;51.798;10.954;2023-04-24T13:35:28;61.56;40.93;80.03;;
63692;Laerm;49838;51.798;10.954;2023-04-24T13:37:57;60.66;41.54;74.55;;